createdAt,value
2022-10-02T00:01:47.646Z,23.97
2022-10-02T00:04:22.698Z,23.91
2022-10-02T00:06:53.004Z,23.92
2022-10-02T00:09:30.583Z,23.85
2022-10-02T00:12:00.480Z,23.85
2022-10-02T00:14:33.936Z,23.86
2022-10-02T00:17:03.195Z,23.81
2022-10-02T00:19:30.703Z,23.78
2022-10-02T00:22:19.570Z,23.77
2022-10-02T00:25:02.135Z,23.74
2022-10-02T00:27:48.956Z,23.76
2022-10-02T00:30:18.519Z,23.74
2022-10-02T00:33:18.408Z,23.69
2022-10-02T00:36:11.773Z,23.61
2022-10-02T00:38:51.271Z,23.65
2022-10-02T00:41:55.916Z,23.58
2022-10-02T00:44:40.966Z,23.57
2022-10-02T00:47:51.963Z,23.53
2022-10-02T00:50:53.009Z,23.51
2022-10-02T00:53:29.266Z,23.50
2022-10-02T00:56:36.653Z,23.45
2022-10-02T00:59:26.158Z,23.40
2022-10-02T01:02:15.576Z,23.44
2022-10-02T01:04:42.858Z,23.43
2022-10-02T01:07:11.653Z,23.43
2022-10-02T01:09:40.589Z,23.40
2022-10-02T01:12:08.634Z,23.38
2022-10-02T01:14:41.206Z,23.34
2022-10-02T01:17:24.278Z,23.34
2022-10-02T01:19:52.182Z,23.34
2022-10-02T01:22:30.070Z,23.30
2022-10-02T01:25:04.546Z,23.32
2022-10-02T01:27:36.630Z,23.25
2022-10-02T01:30:14.737Z,23.24
2022-10-02T01:32:58.836Z,23.18
2022-10-02T01:35:32.343Z,23.12
2022-10-02T01:38:06.786Z,23.13
2022-10-02T01:40:37.891Z,23.11
2022-10-02T01:43:12.731Z,23.13
2022-10-02T01:45:57.408Z,23.06
2022-10-02T01:48:45.573Z,23.03
2022-10-02T01:51:37.310Z,23.02
2022-10-02T01:54:45.671Z,22.97
2022-10-02T01:57:19.146Z,22.99
2022-10-02T02:00:02.191Z,22.97
2022-10-02T02:02:44.696Z,22.99
2022-10-02T02:05:17.751Z,23.00
2022-10-02T02:08:08.985Z,22.93
2022-10-02T02:10:46.195Z,22.84
2022-10-02T02:13:34.751Z,22.88
2022-10-02T02:16:10.860Z,22.88
2022-10-02T02:19:04.187Z,22.83
2022-10-02T02:21:36.238Z,22.82
2022-10-02T02:24:09.748Z,22.80
2022-10-02T02:26:38.125Z,22.75
2022-10-02T02:29:08.905Z,22.70
2022-10-02T02:31:44.674Z,22.66
2022-10-02T02:34:18.553Z,22.64
2022-10-02T02:36:59.112Z,22.51
2022-10-02T02:39:38.946Z,22.57
2022-10-02T02:42:08.784Z,22.50
2022-10-02T02:45:17.711Z,22.51
2022-10-02T02:48:04.181Z,22.43
2022-10-02T02:50:54.985Z,22.32
2022-10-02T02:53:48.449Z,22.35
2022-10-02T02:56:22.047Z,22.29
2022-10-02T02:58:55.552Z,22.21
2022-10-02T03:01:22.870Z,22.16
2022-10-02T03:03:49.888Z,22.19
2022-10-02T03:06:17.416Z,22.18
2022-10-02T03:08:53.186Z,22.12
2022-10-02T03:11:27.321Z,22.05
2022-10-02T03:14:13.160Z,22.11
2022-10-02T03:16:50.541Z,22.09
2022-10-02T03:19:20.491Z,22.08
2022-10-02T03:22:44.690Z,22.07
2022-10-02T03:25:24.412Z,22.08
2022-10-02T03:28:37.331Z,22.05
2022-10-02T03:31:09.024Z,22.05
2022-10-02T03:33:38.665Z,22.01
2022-10-02T03:36:06.044Z,22.02
2022-10-02T03:38:34.191Z,21.94
2022-10-02T03:41:01.385Z,21.99
2022-10-02T03:43:30.909Z,21.96
2022-10-02T03:45:58.014Z,21.93
2022-10-02T03:48:25.421Z,21.97
2022-10-02T03:50:52.384Z,21.90
2022-10-02T03:53:29.550Z,21.93
2022-10-02T03:56:10.055Z,21.89
2022-10-02T03:58:43.623Z,21.89
2022-10-02T04:01:28.397Z,21.90
2022-10-02T04:04:19.141Z,21.91
2022-10-02T04:06:54.629Z,21.86
2022-10-02T04:09:44.603Z,21.86
2022-10-02T04:12:40.509Z,21.84
2022-10-02T04:15:21.458Z,21.83
2022-10-02T04:17:58.194Z,21.83
2022-10-02T04:20:44.127Z,21.80
2022-10-02T04:23:13.912Z,21.83
2022-10-02T04:25:47.414Z,21.82
2022-10-02T04:28:15.592Z,21.75
2022-10-02T04:30:42.660Z,21.76
2022-10-02T04:33:15.751Z,21.72
2022-10-02T04:35:45.678Z,21.75
2022-10-02T04:38:34.204Z,21.74
2022-10-02T04:41:10.300Z,21.79
2022-10-02T04:44:10.949Z,21.75
2022-10-02T04:46:41.075Z,21.80
2022-10-02T04:49:26.209Z,21.76
2022-10-02T04:51:59.207Z,21.81
2022-10-02T04:54:44.893Z,21.83
2022-10-02T04:57:44.272Z,21.81
2022-10-02T05:00:16.373Z,21.80
2022-10-02T05:03:16.066Z,21.82
2022-10-02T05:06:13.853Z,21.82
2022-10-02T05:09:18.260Z,21.86
2022-10-02T05:11:56.286Z,21.86
2022-10-02T05:14:32.561Z,21.82
2022-10-02T05:17:31.182Z,21.83
2022-10-02T05:20:03.783Z,21.82
2022-10-02T05:22:30.692Z,21.89
2022-10-02T05:25:19.479Z,21.91
2022-10-02T05:28:32.915Z,21.89
2022-10-02T05:31:31.755Z,21.89
2022-10-02T05:34:47.233Z,21.93
2022-10-02T05:37:33.120Z,21.87
2022-10-02T05:40:25.883Z,21.92
2022-10-02T05:43:07.237Z,21.94
2022-10-02T05:45:39.287Z,21.93
2022-10-02T05:48:25.041Z,21.88
2022-10-02T05:50:59.887Z,22.01
2022-10-02T05:53:36.839Z,21.92
2022-10-02T05:56:38.111Z,21.96
2022-10-02T05:59:28.589Z,21.88
2022-10-02T06:01:59.009Z,21.91
2022-10-02T06:04:32.890Z,21.70
2022-10-02T06:07:07.099Z,21.82
2022-10-02T06:10:00.424Z,21.80
2022-10-02T06:13:08.984Z,21.69
2022-10-02T06:15:51.681Z,21.72
2022-10-02T06:18:24.405Z,21.70
2022-10-02T06:21:09.962Z,21.52
2022-10-02T06:23:53.789Z,21.65
2022-10-02T06:26:27.152Z,21.45
2022-10-02T06:29:04.897Z,21.41
2022-10-02T06:32:01.846Z,21.44
2022-10-02T06:34:29.357Z,21.51
2022-10-02T06:37:05.877Z,21.39
2022-10-02T06:39:43.404Z,21.32
2022-10-02T06:42:34.056Z,21.58
2022-10-02T06:45:36.828Z,21.29
2022-10-02T06:48:10.136Z,21.23
2022-10-02T06:51:18.757Z,21.45
2022-10-02T06:54:27.364Z,21.31
2022-10-02T06:57:10.978Z,21.39
2022-10-02T06:59:38.347Z,21.65
2022-10-02T07:02:46.706Z,21.65
2022-10-02T07:05:42.930Z,21.72
2022-10-02T07:08:31.848Z,21.83
2022-10-02T07:11:17.979Z,21.95
2022-10-02T07:13:45.063Z,22.11
2022-10-02T07:16:47.334Z,22.20
2022-10-02T07:19:48.234Z,22.41
2022-10-02T07:22:44.108Z,22.50
2022-10-02T07:25:36.973Z,22.59
2022-10-02T07:28:15.981Z,22.69
2022-10-02T07:31:06.140Z,22.71
2022-10-02T07:34:02.827Z,22.81
2022-10-02T07:36:38.798Z,22.94
2022-10-02T07:39:21.761Z,23.04
2022-10-02T07:42:24.187Z,23.02
2022-10-02T07:45:34.921Z,22.92
2022-10-02T07:51:33.009Z,23.29
2022-10-02T07:54:20.237Z,23.41
2022-10-02T07:56:50.360Z,23.51
2022-10-02T07:59:19.050Z,23.53
2022-10-02T08:01:50.645Z,23.67
2022-10-02T08:04:37.119Z,23.99
2022-10-02T08:07:06.766Z,24.27
2022-10-02T08:09:41.560Z,24.28
2022-10-02T08:12:26.625Z,24.57
2022-10-02T08:15:05.740Z,24.72
2022-10-02T08:18:22.786Z,25.21
2022-10-02T08:20:50.379Z,25.45
2022-10-02T08:23:29.794Z,25.69
2022-10-02T08:26:12.808Z,26.14
2022-10-02T08:28:46.649Z,26.25
2022-10-02T08:31:19.208Z,26.00
2022-10-02T08:33:46.644Z,25.58
2022-10-02T08:36:38.789Z,25.56
2022-10-02T08:39:25.035Z,26.31
2022-10-02T08:42:07.429Z,26.76
2022-10-02T08:45:11.331Z,26.95
2022-10-02T08:48:06.571Z,26.98
2022-10-02T08:51:06.709Z,27.25
2022-10-02T08:53:54.902Z,27.19
2022-10-02T08:56:53.215Z,27.80
2022-10-02T08:59:52.909Z,27.66
2022-10-02T09:02:38.795Z,27.30
2022-10-02T09:05:40.413Z,27.54
2022-10-02T09:08:13.504Z,27.50
2022-10-02T09:10:55.942Z,27.93
2022-10-02T09:13:46.604Z,27.45
2022-10-02T09:16:47.786Z,27.96
2022-10-02T09:19:32.455Z,28.25
2022-10-02T09:22:13.678Z,29.02
2022-10-02T09:25:12.470Z,28.87
2022-10-02T09:28:13.936Z,29.01
2022-10-02T09:31:19.555Z,28.93
2022-10-02T09:34:17.158Z,29.04
2022-10-02T09:37:33.217Z,29.53
2022-10-02T09:40:31.721Z,28.80
2022-10-02T09:43:33.293Z,29.44
2022-10-02T09:46:48.628Z,29.62
2022-10-02T09:49:54.481Z,29.35
2022-10-02T09:53:00.935Z,29.95
2022-10-02T09:56:06.486Z,29.64
2022-10-02T09:58:37.764Z,30.17
2022-10-02T10:01:37.950Z,30.04
2022-10-02T10:05:05.125Z,29.88
2022-10-02T10:08:20.132Z,29.64
2022-10-02T10:11:06.293Z,29.95
2022-10-02T10:13:58.967Z,30.34
2022-10-02T10:16:51.655Z,30.18
2022-10-02T10:19:25.122Z,30.21
2022-10-02T10:22:01.451Z,30.17
2022-10-02T10:25:13.597Z,30.64
2022-10-02T10:28:17.435Z,30.96
2022-10-02T10:31:12.688Z,31.00
2022-10-02T10:34:10.383Z,31.13
2022-10-02T10:37:13.162Z,31.47
2022-10-02T10:39:58.961Z,31.60
2022-10-02T10:43:07.396Z,31.45
2022-10-02T10:46:00.186Z,31.42
2022-10-02T10:48:33.329Z,31.73
2022-10-02T10:51:03.594Z,31.32
2022-10-02T10:53:49.650Z,30.92
2022-10-02T10:56:37.547Z,31.45
2022-10-02T10:59:42.834Z,31.32
2022-10-02T11:02:31.757Z,31.68
2022-10-02T11:05:13.172Z,31.38
2022-10-02T11:07:57.104Z,31.52
2022-10-02T11:11:29.373Z,31.45
2022-10-02T11:14:31.577Z,31.95
2022-10-02T11:17:27.221Z,31.16
2022-10-02T11:20:35.386Z,31.36
2022-10-02T11:23:11.633Z,31.89
2022-10-02T11:26:26.825Z,31.86
2022-10-02T11:29:12.984Z,32.02
2022-10-02T11:31:44.278Z,31.66
2022-10-02T11:34:53.235Z,31.84
2022-10-02T11:37:44.238Z,32.33
2022-10-02T11:40:36.603Z,31.99
2022-10-02T11:43:43.791Z,32.65
2022-10-02T11:46:30.172Z,32.52
2022-10-02T11:49:08.652Z,32.55
2022-10-02T11:51:36.815Z,32.46
2022-10-02T11:54:44.024Z,32.43
2022-10-02T11:57:22.153Z,32.01
2022-10-02T12:00:02.911Z,32.06
2022-10-02T12:02:48.722Z,31.87
2022-10-02T12:05:36.302Z,32.48
2022-10-02T12:08:32.227Z,32.76
2022-10-02T12:11:07.639Z,32.41
2022-10-02T12:14:01.489Z,32.66
2022-10-02T12:17:02.488Z,33.36
2022-10-02T12:20:32.721Z,31.20
2022-10-02T12:23:38.413Z,31.19
2022-10-02T12:26:50.482Z,31.77
2022-10-02T12:29:46.631Z,32.54
2022-10-02T12:32:32.571Z,31.24
2022-10-02T12:35:26.607Z,30.37
2022-10-02T12:38:16.580Z,30.49
2022-10-02T12:41:08.672Z,31.19
2022-10-02T12:43:53.493Z,31.22
2022-10-02T12:46:30.177Z,31.12
2022-10-02T12:49:20.343Z,31.58
2022-10-02T12:52:09.817Z,32.26
2022-10-02T12:55:09.118Z,32.16
2022-10-02T12:58:04.367Z,32.91
2022-10-02T13:00:44.482Z,33.56
2022-10-02T13:03:48.331Z,32.38
2022-10-02T13:06:42.310Z,32.89
2022-10-02T13:09:35.506Z,32.08
2022-10-02T13:12:36.006Z,30.35
2022-10-02T13:15:06.945Z,30.93
2022-10-02T13:18:14.848Z,31.25
2022-10-02T13:20:53.020Z,31.52
2022-10-02T13:23:46.501Z,30.99
2022-10-02T13:26:33.130Z,31.40
2022-10-02T13:29:29.450Z,30.98
2022-10-02T13:32:09.169Z,31.60
2022-10-02T13:34:51.968Z,31.23
2022-10-02T13:37:33.321Z,31.48
2022-10-02T13:40:20.521Z,32.32
2022-10-02T13:43:04.753Z,31.83
2022-10-02T13:46:02.970Z,32.22
2022-10-02T13:48:55.445Z,31.94
2022-10-02T13:51:36.370Z,32.31
2022-10-02T13:54:41.904Z,33.26
2022-10-02T13:57:33.152Z,32.75
2022-10-02T14:00:24.089Z,32.86
2022-10-02T14:03:06.687Z,33.27
2022-10-02T14:05:45.929Z,34.30
2022-10-02T14:08:57.956Z,33.02
2022-10-02T14:11:44.611Z,32.83
2022-10-02T14:14:52.348Z,33.05
2022-10-02T14:17:38.710Z,32.58
2022-10-02T14:20:25.643Z,33.50
2022-10-02T14:23:16.827Z,32.77
2022-10-02T14:25:52.957Z,31.82
2022-10-02T14:28:27.187Z,31.31
2022-10-02T14:31:17.537Z,31.04
2022-10-02T14:33:57.965Z,30.82
2022-10-02T14:37:01.841Z,30.90
2022-10-02T14:39:38.419Z,30.87
2022-10-02T14:42:23.529Z,30.27
2022-10-02T14:45:04.783Z,30.69
2022-10-02T14:48:00.442Z,30.88
2022-10-02T14:51:03.607Z,31.23
2022-10-02T14:53:36.227Z,30.82
2022-10-02T14:56:31.602Z,30.93
2022-10-02T14:59:53.544Z,30.46
2022-10-02T15:02:29.690Z,30.13
2022-10-02T15:05:17.286Z,29.82
2022-10-02T15:07:45.913Z,30.20
2022-10-02T15:10:22.287Z,29.88
2022-10-02T15:13:01.702Z,29.62
2022-10-02T15:15:42.542Z,29.84
2022-10-02T15:18:21.334Z,29.49
2022-10-02T15:21:00.854Z,29.85
2022-10-02T15:23:34.721Z,29.86
2022-10-02T15:26:05.443Z,29.89
2022-10-02T15:29:12.609Z,29.83
2022-10-02T15:32:07.889Z,29.57
2022-10-02T15:35:04.308Z,28.93
2022-10-02T15:37:43.731Z,28.78
2022-10-02T15:40:34.163Z,28.50
2022-10-02T15:43:17.508Z,28.65
2022-10-02T15:46:03.630Z,28.84
2022-10-02T15:49:05.056Z,29.38
2022-10-02T15:51:41.407Z,29.51
2022-10-02T15:54:34.589Z,28.54
2022-10-02T15:57:14.006Z,28.98
2022-10-02T15:59:59.979Z,28.55
2022-10-02T16:02:39.287Z,28.88
2022-10-02T16:05:51.687Z,28.49
2022-10-02T16:08:31.280Z,28.02
2022-10-02T16:11:12.187Z,28.72
2022-10-02T16:14:01.728Z,28.73
2022-10-02T16:16:41.924Z,27.77
2022-10-02T16:19:47.317Z,28.49
2022-10-02T16:22:29.831Z,27.62
2022-10-02T16:25:03.145Z,27.07
2022-10-02T16:27:49.223Z,27.18
2022-10-02T16:30:18.960Z,27.04
2022-10-02T16:33:04.644Z,27.43
2022-10-02T16:35:43.848Z,27.67
2022-10-02T16:38:20.713Z,27.36
2022-10-02T16:40:57.246Z,27.83
2022-10-02T16:43:46.832Z,27.64
2022-10-02T16:46:25.993Z,27.54
2022-10-02T16:48:57.820Z,27.94
2022-10-02T16:51:52.113Z,27.47
2022-10-02T16:54:32.937Z,27.31
2022-10-02T16:57:23.776Z,27.38
2022-10-02T17:00:15.421Z,27.15
2022-10-02T17:02:50.609Z,27.12
2022-10-02T17:05:30.366Z,26.67
2022-10-02T17:08:37.965Z,27.04
2022-10-02T17:11:17.384Z,27.32
2022-10-02T17:14:06.660Z,26.91
2022-10-02T17:16:53.213Z,27.41
2022-10-02T17:20:01.736Z,27.18
2022-10-02T17:22:38.303Z,27.30
2022-10-02T17:25:27.427Z,26.81
2022-10-02T17:28:02.198Z,26.87
2022-10-02T17:30:49.594Z,27.16
2022-10-02T17:33:22.794Z,26.64
2022-10-02T17:36:05.409Z,26.81
2022-10-02T17:38:52.222Z,26.50
2022-10-02T17:41:47.747Z,26.60
2022-10-02T17:44:28.933Z,26.72
2022-10-02T17:47:04.893Z,26.71
2022-10-02T17:50:09.801Z,26.64
2022-10-02T17:53:10.862Z,26.67
2022-10-02T17:56:18.752Z,26.87
2022-10-02T17:58:56.136Z,26.62
2022-10-02T18:01:29.316Z,26.66
2022-10-02T18:04:18.616Z,26.77
2022-10-02T18:06:49.338Z,26.93
2022-10-02T18:09:41.155Z,27.06
2022-10-02T18:12:27.505Z,26.66
2022-10-02T18:15:51.482Z,26.47
2022-10-02T18:19:03.267Z,26.32
2022-10-02T18:21:52.416Z,26.49
2022-10-02T18:24:55.441Z,26.72
2022-10-02T18:27:41.779Z,26.30
2022-10-02T18:30:44.348Z,26.43
2022-10-02T18:33:40.847Z,26.47
2022-10-02T18:36:13.305Z,26.79
2022-10-02T18:39:04.340Z,26.71
2022-10-02T18:42:01.936Z,26.50
2022-10-02T18:45:27.547Z,26.52
2022-10-02T18:48:32.983Z,26.72
2022-10-02T18:51:28.700Z,26.78
2022-10-02T18:54:27.005Z,26.49
2022-10-02T18:57:12.640Z,26.70
2022-10-02T19:00:05.471Z,26.39
2022-10-02T19:02:55.280Z,26.23
2022-10-02T19:06:00.716Z,26.64
2022-10-02T19:09:14.645Z,26.34
2022-10-02T19:11:48.961Z,26.41
2022-10-02T19:14:43.656Z,26.35
2022-10-02T19:17:39.475Z,26.48
2022-10-02T19:20:36.766Z,26.23
2022-10-02T19:23:08.934Z,26.46
2022-10-02T19:25:37.018Z,26.48
2022-10-02T19:28:17.896Z,26.62
2022-10-02T19:31:17.291Z,26.63
2022-10-02T19:34:03.699Z,26.69
2022-10-02T19:36:50.508Z,26.68
2022-10-02T19:39:30.767Z,26.62
2022-10-02T19:42:04.166Z,26.26
2022-10-02T19:44:48.403Z,26.33
2022-10-02T19:47:39.367Z,26.33
2022-10-02T19:50:28.382Z,26.45
2022-10-02T19:53:07.260Z,26.48
2022-10-02T19:55:41.431Z,26.26
2022-10-02T19:58:32.748Z,26.02
2022-10-02T20:01:03.288Z,25.93
2022-10-02T20:03:32.697Z,26.02
2022-10-02T20:06:19.665Z,26.30
2022-10-02T20:09:03.611Z,26.09
2022-10-02T20:11:43.456Z,26.21
2022-10-02T20:14:26.805Z,26.26
2022-10-02T20:17:21.981Z,26.21
2022-10-02T20:20:16.182Z,26.44
2022-10-02T20:23:03.103Z,26.53
2022-10-02T20:25:54.122Z,26.57
2022-10-02T20:28:51.357Z,26.39
2022-10-02T20:31:39.796Z,26.32
2022-10-02T20:34:23.975Z,26.19
2022-10-02T20:37:30.357Z,26.30
2022-10-02T20:40:12.176Z,26.26
2022-10-02T20:43:06.538Z,26.40
2022-10-02T20:45:48.154Z,26.51
2022-10-02T20:49:06.465Z,26.51
2022-10-02T20:52:02.339Z,26.56
2022-10-02T20:54:47.245Z,26.61
2022-10-02T20:58:00.326Z,26.56
2022-10-02T21:00:50.136Z,26.64
2022-10-02T21:03:55.709Z,26.63
2022-10-02T21:06:54.931Z,26.62
2022-10-02T21:09:51.230Z,26.64
2022-10-02T21:12:40.006Z,26.56
2022-10-02T21:15:27.611Z,26.58
2022-10-02T21:18:30.289Z,26.55
2022-10-02T21:21:29.580Z,26.58
2022-10-02T21:24:21.453Z,26.52
2022-10-02T21:27:03.829Z,26.51
2022-10-02T21:29:56.103Z,26.50
2022-10-02T21:33:03.091Z,26.42
2022-10-02T21:35:32.247Z,26.38
2022-10-02T21:37:59.388Z,26.38
2022-10-02T21:40:32.895Z,26.34
2022-10-02T21:43:06.950Z,26.30
2022-10-02T21:45:53.137Z,26.29
2022-10-02T21:48:35.348Z,26.27
2022-10-02T21:51:28.047Z,26.21
2022-10-02T21:54:18.864Z,26.25
2022-10-02T21:57:19.611Z,26.22
2022-10-02T22:00:11.727Z,26.22
2022-10-02T22:03:07.244Z,26.18
2022-10-02T22:05:49.020Z,26.12
2022-10-02T22:08:31.649Z,26.06
2022-10-02T22:11:09.891Z,26.03
2022-10-02T22:13:39.472Z,26.03
2022-10-02T22:16:24.474Z,26.03
2022-10-02T22:19:10.241Z,26.04
2022-10-02T22:21:52.303Z,26.08
2022-10-02T22:24:36.668Z,26.07
2022-10-02T22:27:43.531Z,26.05
2022-10-02T22:30:34.529Z,26.04
2022-10-02T22:33:13.559Z,26.06
2022-10-02T22:35:46.360Z,26.04
2022-10-02T22:38:16.784Z,26.05
2022-10-02T22:40:51.751Z,26.03
2022-10-02T22:43:36.148Z,26.01
2022-10-02T22:46:30.319Z,26.00
2022-10-02T22:49:02.463Z,26.00
2022-10-02T22:51:44.322Z,25.97
2022-10-02T22:54:11.489Z,25.99
2022-10-02T22:56:45.481Z,26.00
2022-10-02T22:59:18.893Z,25.96
2022-10-02T23:02:06.834Z,25.92
2022-10-02T23:05:10.002Z,25.82
2022-10-02T23:07:55.774Z,25.84
2022-10-02T23:10:35.809Z,25.78
2022-10-02T23:13:15.905Z,25.78
2022-10-02T23:16:09.932Z,25.83
2022-10-02T23:18:50.801Z,25.78
2022-10-02T23:21:28.987Z,25.74
2022-10-02T23:24:17.587Z,25.75
2022-10-02T23:27:03.025Z,25.75
2022-10-02T23:29:46.002Z,25.79
2022-10-02T23:32:43.825Z,25.80
2022-10-02T23:35:14.843Z,25.76
2022-10-02T23:37:48.100Z,25.74
2022-10-02T23:40:31.212Z,25.72
2022-10-02T23:43:03.435Z,25.67
2022-10-02T23:45:40.374Z,25.62
2022-10-02T23:48:15.111Z,25.62
2022-10-02T23:51:02.292Z,25.62
2022-10-02T23:53:32.293Z,25.64
2022-10-02T23:56:28.070Z,25.63
